createdAt,value
2023-05-14T00:01:11.340Z,100612.63
2023-05-14T00:03:38.692Z,100619.94
2023-05-14T00:06:06.594Z,100620.53
2023-05-14T00:08:34.113Z,100616.13
2023-05-14T00:11:01.830Z,100617.41
2023-05-14T00:13:29.436Z,100619.34
2023-05-14T00:15:58.627Z,100624.34
2023-05-14T00:18:26.033Z,100618.16
2023-05-14T00:20:53.828Z,100623.69
2023-05-14T00:23:21.324Z,100618.78
2023-05-14T00:25:48.931Z,100619.34
2023-05-14T00:28:16.267Z,100616.66
2023-05-14T00:30:44.398Z,100614.28
2023-05-14T00:33:13.050Z,100612.59
2023-05-14T00:35:40.720Z,100616.34
2023-05-14T00:38:08.011Z,100610.28
2023-05-14T00:40:35.774Z,100612.56
2023-05-14T00:43:03.191Z,100616.09
2023-05-14T00:45:30.980Z,100616.13
2023-05-14T00:47:58.572Z,100610.06
2023-05-14T00:50:27.891Z,100613.72
2023-05-14T00:52:55.099Z,100607.66
2023-05-14T00:55:22.927Z,100607.66
2023-05-14T00:57:51.029Z,100604.25
2023-05-14T01:00:19.172Z,100602.13
2023-05-14T01:02:46.670Z,100601.97
2023-05-14T01:05:14.881Z,100604.00
2023-05-14T01:07:54.565Z,100596.94
2023-05-14T01:10:27.933Z,100602.31
2023-05-14T01:13:04.139Z,100595.69
2023-05-14T01:15:34.641Z,100596.09
2023-05-14T01:18:04.781Z,100598.38
2023-05-14T01:20:32.793Z,100607.50
2023-05-14T01:23:01.509Z,100597.66
2023-05-14T01:25:31.355Z,100600.78
2023-05-14T01:28:06.525Z,100606.13
2023-05-14T01:30:37.034Z,100604.75
2023-05-14T01:33:10.052Z,100600.44
2023-05-14T01:35:38.342Z,100598.56
2023-05-14T01:38:10.122Z,100606.88
2023-05-14T01:40:38.418Z,100602.66
2023-05-14T01:43:06.405Z,100595.91
2023-05-14T01:45:36.594Z,100596.06
2023-05-14T01:48:04.770Z,100592.06
2023-05-14T01:50:32.517Z,100590.38
2023-05-14T01:52:59.957Z,100584.91
2023-05-14T01:55:29.752Z,100583.78
2023-05-14T01:57:57.013Z,100586.00
2023-05-14T02:00:25.449Z,100587.59
2023-05-14T02:02:53.355Z,100587.84
2023-05-14T02:05:21.535Z,100591.22
2023-05-14T02:07:49.164Z,100586.84
2023-05-14T02:10:18.523Z,100583.19
2023-05-14T02:12:47.496Z,100586.59
2023-05-14T02:15:15.288Z,100590.38
2023-05-14T02:17:42.763Z,100588.84
2023-05-14T02:20:11.774Z,100586.31
2023-05-14T02:22:39.289Z,100574.63
2023-05-14T02:25:08.630Z,100574.91
2023-05-14T02:27:36.245Z,100584.63
2023-05-14T02:30:06.759Z,100577.63
2023-05-14T02:32:34.381Z,100580.00
2023-05-14T02:35:02.650Z,100566.75
2023-05-14T02:37:29.845Z,100571.41
2023-05-14T02:39:57.207Z,100569.88
2023-05-14T02:42:25.002Z,100581.56
2023-05-14T02:44:52.503Z,100572.69
2023-05-14T02:47:21.924Z,100569.16
2023-05-14T02:49:49.396Z,100573.47
2023-05-14T02:52:17.377Z,100578.56
2023-05-14T02:54:44.680Z,100568.59
2023-05-14T02:57:12.627Z,100569.69
2023-05-14T02:59:40.040Z,100570.91
2023-05-14T03:02:08.259Z,100566.72
2023-05-14T03:04:37.740Z,100570.00
2023-05-14T03:07:05.931Z,100567.59
2023-05-14T03:09:33.239Z,100574.44
2023-05-14T03:12:01.449Z,100567.56
2023-05-14T03:14:28.764Z,100566.44
2023-05-14T03:16:56.920Z,100576.47
2023-05-14T03:19:24.410Z,100570.84
2023-05-14T03:21:53.725Z,100572.22
2023-05-14T03:24:21.197Z,100582.94
2023-05-14T03:26:48.928Z,100582.09
2023-05-14T03:29:16.382Z,100584.91
2023-05-14T03:31:44.355Z,100580.66
2023-05-14T03:34:11.787Z,100576.84
2023-05-14T03:36:39.772Z,100569.16
2023-05-14T03:39:08.566Z,100579.41
2023-05-14T03:41:36.725Z,100567.75
2023-05-14T03:44:04.149Z,100568.88
2023-05-14T03:46:32.359Z,100558.19
2023-05-14T03:48:59.826Z,100544.94
2023-05-14T03:51:27.601Z,100562.44
2023-05-14T03:53:54.964Z,100571.13
2023-05-14T03:56:24.219Z,100557.63
2023-05-14T03:58:51.765Z,100556.16
2023-05-14T04:01:19.486Z,100562.38
2023-05-14T04:03:47.017Z,100566.94
2023-05-14T04:06:15.005Z,100564.97
2023-05-14T04:08:42.333Z,100567.91
2023-05-14T04:11:10.075Z,100571.59
2023-05-14T04:13:39.058Z,100568.13
2023-05-14T04:16:07.128Z,100563.69
2023-05-14T04:18:34.521Z,100564.59
2023-05-14T04:21:03.126Z,100567.97
2023-05-14T04:23:30.667Z,100566.69
2023-05-14T04:25:58.610Z,100571.97
2023-05-14T04:28:25.876Z,100570.56
2023-05-14T04:30:55.133Z,100568.47
2023-05-14T04:33:22.636Z,100573.13
2023-05-14T04:35:50.325Z,100565.97
2023-05-14T04:38:17.676Z,100568.06
2023-05-14T04:40:45.651Z,100570.75
2023-05-14T04:43:13.165Z,100563.53
2023-05-14T04:45:41.205Z,100555.34
2023-05-14T04:48:09.954Z,100561.75
2023-05-14T04:50:37.861Z,100557.31
2023-05-14T04:53:05.407Z,100557.47
2023-05-14T04:55:33.286Z,100554.16
2023-05-14T04:58:00.752Z,100547.97
2023-05-14T05:00:28.928Z,100554.69
2023-05-14T05:02:56.569Z,100547.81
2023-05-14T05:05:25.957Z,100552.22
2023-05-14T05:07:53.303Z,100545.31
2023-05-14T05:10:21.390Z,100538.25
2023-05-14T05:12:49.140Z,100537.41
2023-05-14T05:15:20.074Z,100541.59
2023-05-14T05:17:47.857Z,100545.47
2023-05-14T05:20:16.118Z,100541.94
2023-05-14T05:22:44.907Z,100537.25
2023-05-14T05:25:12.685Z,100531.03
2023-05-14T05:27:40.043Z,100525.16
2023-05-14T05:30:08.877Z,100519.94
2023-05-14T05:32:36.448Z,100525.31
2023-05-14T05:35:04.414Z,100521.44
2023-05-14T05:37:32.197Z,100516.06
2023-05-14T05:40:01.120Z,100517.06
2023-05-14T05:42:28.541Z,100519.75
2023-05-14T05:44:56.306Z,100521.28
2023-05-14T05:47:23.694Z,100522.47
2023-05-14T05:49:51.490Z,100526.47
2023-05-14T05:52:18.730Z,100521.78
2023-05-14T05:54:46.691Z,100527.81
2023-05-14T05:57:15.727Z,100526.16
2023-05-14T05:59:43.780Z,100525.78
2023-05-14T06:02:11.157Z,100521.06
2023-05-14T06:04:38.956Z,100528.50
2023-05-14T06:07:06.400Z,100528.66
2023-05-14T06:09:34.175Z,100530.50
2023-05-14T06:12:01.462Z,100528.50
2023-05-14T06:14:31.975Z,100519.94
2023-05-14T06:16:59.425Z,100523.13
2023-05-14T06:19:27.484Z,100525.63
2023-05-14T06:21:55.133Z,100528.34
2023-05-14T06:24:23.213Z,100531.22
2023-05-14T06:26:50.767Z,100525.78
2023-05-14T06:29:18.661Z,100523.56
2023-05-14T06:31:47.655Z,100519.31
2023-05-14T06:34:15.406Z,100524.03
2023-05-14T06:36:42.795Z,100518.13
2023-05-14T06:39:10.546Z,100522.44
2023-05-14T06:41:38.027Z,100518.94
2023-05-14T06:44:05.699Z,100519.19
2023-05-14T06:46:33.252Z,100530.63
2023-05-14T06:49:02.539Z,100512.94
2023-05-14T06:51:29.983Z,100520.06
2023-05-14T06:53:57.813Z,100524.19
2023-05-14T06:56:25.085Z,100519.53
2023-05-14T06:58:53.089Z,100515.19
2023-05-14T07:01:20.576Z,100504.25
2023-05-14T07:03:48.448Z,100493.13
2023-05-14T07:06:17.401Z,100494.63
2023-05-14T07:08:45.162Z,100490.34
2023-05-14T07:11:12.686Z,100497.44
2023-05-14T07:13:43.266Z,100497.59
2023-05-14T07:16:10.638Z,100486.19
2023-05-14T07:18:38.449Z,100488.16
2023-05-14T07:21:06.535Z,100487.03
2023-05-14T07:23:36.049Z,100489.59
2023-05-14T07:26:04.009Z,100490.84
2023-05-14T07:28:31.870Z,100478.59
2023-05-14T07:30:59.457Z,100480.31
2023-05-14T07:33:27.458Z,100482.56
2023-05-14T07:35:54.861Z,100484.75
2023-05-14T07:38:22.882Z,100477.50
2023-05-14T07:40:51.705Z,100474.03
2023-05-14T07:43:19.636Z,100478.59
2023-05-14T07:45:47.024Z,100474.00
2023-05-14T07:48:14.959Z,100468.94
2023-05-14T07:50:42.476Z,100473.66
2023-05-14T07:53:10.106Z,100476.25
2023-05-14T07:55:37.747Z,100456.97
2023-05-14T07:58:06.933Z,100463.41
2023-05-14T08:00:34.265Z,100464.63
2023-05-14T08:03:05.781Z,100471.06
2023-05-14T08:05:34.750Z,100460.44
2023-05-14T08:08:02.622Z,100464.09
2023-05-14T08:10:29.978Z,100458.88
2023-05-14T08:12:57.920Z,100453.63
2023-05-14T08:15:27.929Z,100461.13
2023-05-14T08:17:55.935Z,100459.47
2023-05-14T08:20:24.072Z,100458.44
2023-05-14T08:22:51.975Z,100447.34
2023-05-14T08:25:19.382Z,100452.59
2023-05-14T08:27:47.114Z,100446.28
2023-05-14T08:30:15.032Z,100444.22
2023-05-14T08:32:44.154Z,100444.63
2023-05-14T08:35:11.776Z,100448.41
2023-05-14T08:37:39.566Z,100449.63
2023-05-14T08:40:08.180Z,100446.31
2023-05-14T08:42:38.506Z,100439.41
2023-05-14T08:45:10.277Z,100441.47
2023-05-14T08:47:38.226Z,100436.38
2023-05-14T08:50:08.174Z,100429.91
2023-05-14T08:52:36.063Z,100437.22
2023-05-14T08:55:04.974Z,100431.72
2023-05-14T08:57:33.842Z,100426.13
2023-05-14T09:00:01.878Z,100415.97
2023-05-14T09:02:30.763Z,100415.44
2023-05-14T09:05:00.202Z,100419.59
2023-05-14T09:07:29.194Z,100416.00
2023-05-14T09:09:56.944Z,100413.09
2023-05-14T09:12:24.415Z,100402.09
2023-05-14T09:14:52.191Z,100400.16
2023-05-14T09:17:19.912Z,100410.97
2023-05-14T09:19:47.860Z,100406.34
2023-05-14T09:22:16.761Z,100406.28
2023-05-14T09:24:46.489Z,100403.66
2023-05-14T09:27:18.449Z,100397.91
2023-05-14T09:29:46.302Z,100386.91
2023-05-14T09:32:15.652Z,100383.50
2023-05-14T09:34:43.613Z,100384.66
2023-05-14T09:37:10.992Z,100381.84
2023-05-14T09:39:38.946Z,100375.13
2023-05-14T09:42:08.158Z,100366.63
2023-05-14T09:44:35.832Z,100366.09
2023-05-14T09:47:03.291Z,100362.63
2023-05-14T09:49:31.042Z,100351.31
2023-05-14T09:51:58.364Z,100357.59
2023-05-14T09:54:26.999Z,100348.28
2023-05-14T09:56:55.749Z,100347.63
2023-05-14T09:59:25.290Z,100355.09
2023-05-14T10:01:53.688Z,100352.00
2023-05-14T10:04:23.377Z,100349.75
2023-05-14T10:06:53.427Z,100343.28
2023-05-14T10:09:22.761Z,100341.19
2023-05-14T10:11:56.554Z,100333.19
2023-05-14T10:14:33.632Z,100334.50
2023-05-14T10:17:03.221Z,100322.25
2023-05-14T10:19:33.712Z,100322.44
2023-05-14T10:22:04.640Z,100329.09
2023-05-14T10:24:33.156Z,100321.84
2023-05-14T10:27:01.079Z,100312.91
2023-05-14T10:29:37.370Z,100312.22
2023-05-14T10:32:06.517Z,100308.03
2023-05-14T10:34:36.310Z,100301.53
2023-05-14T10:37:04.524Z,100311.16
2023-05-14T10:39:46.520Z,100313.91
2023-05-14T10:42:16.495Z,100301.53
2023-05-14T10:44:56.384Z,100313.53
2023-05-14T10:47:24.077Z,100311.03
2023-05-14T10:49:54.836Z,100300.69
2023-05-14T10:52:23.691Z,100305.25
2023-05-14T10:54:53.091Z,100305.59
2023-05-14T10:57:21.844Z,100293.56
2023-05-14T10:59:51.585Z,100290.88
2023-05-14T11:02:25.463Z,100296.44
2023-05-14T11:04:58.297Z,100295.91
2023-05-14T11:07:29.190Z,100283.53
2023-05-14T11:10:02.473Z,100279.22
2023-05-14T11:12:30.163Z,100279.41
2023-05-14T11:14:59.255Z,100275.88
2023-05-14T11:17:29.153Z,100271.22
2023-05-14T11:19:57.301Z,100271.09
2023-05-14T11:22:25.343Z,100267.56
2023-05-14T11:24:53.396Z,100271.09
2023-05-14T11:27:22.360Z,100266.72
2023-05-14T11:29:51.050Z,100264.91
2023-05-14T11:32:19.806Z,100261.72
2023-05-14T11:34:48.985Z,100262.19
2023-05-14T11:37:16.791Z,100259.19
2023-05-14T11:39:48.860Z,100261.00
2023-05-14T11:42:16.664Z,100259.22
2023-05-14T11:44:48.394Z,100251.19
2023-05-14T11:47:17.406Z,100255.50
2023-05-14T11:49:45.661Z,100245.63
2023-05-14T11:52:16.187Z,100239.19
2023-05-14T11:54:44.198Z,100243.16
2023-05-14T11:57:13.665Z,100233.47
2023-05-14T11:59:41.354Z,100238.06
2023-05-14T12:02:10.771Z,100233.84
2023-05-14T12:04:39.204Z,100235.56
2023-05-14T12:07:10.800Z,100233.84
2023-05-14T12:09:45.099Z,100232.59
2023-05-14T12:12:12.967Z,100231.25
2023-05-14T12:14:43.156Z,100232.19
2023-05-14T12:17:12.904Z,100225.19
2023-05-14T12:19:41.814Z,100219.84
2023-05-14T12:22:09.544Z,100214.72
2023-05-14T12:24:37.653Z,100214.63
2023-05-14T12:27:07.845Z,100208.69
2023-05-14T12:29:37.014Z,100216.47
2023-05-14T12:32:08.422Z,100208.81
2023-05-14T12:34:37.508Z,100197.88
2023-05-14T12:37:05.794Z,100207.72
2023-05-14T12:39:34.575Z,100213.41
2023-05-14T12:42:02.024Z,100213.50
2023-05-14T12:44:31.161Z,100196.75
2023-05-14T12:46:58.544Z,100194.59
2023-05-14T12:49:26.318Z,100191.97
2023-05-14T12:52:07.923Z,100184.75
2023-05-14T12:54:42.925Z,100184.22
2023-05-14T12:57:10.475Z,100179.53
2023-05-14T12:59:39.515Z,100185.03
2023-05-14T13:02:07.362Z,100168.88
2023-05-14T13:04:35.175Z,100176.34
2023-05-14T13:07:02.528Z,100169.63
2023-05-14T13:09:30.306Z,100173.03
2023-05-14T13:11:57.641Z,100170.97
2023-05-14T13:14:25.383Z,100163.03
2023-05-14T13:16:54.211Z,100170.53
2023-05-14T13:19:23.980Z,100162.16
2023-05-14T13:21:51.359Z,100163.91
2023-05-14T13:24:19.035Z,100161.13
2023-05-14T13:26:46.412Z,100148.97
2023-05-14T13:29:14.021Z,100145.41
2023-05-14T13:31:41.339Z,100147.50
2023-05-14T13:34:10.512Z,100140.53
2023-05-14T13:36:37.909Z,100131.00
2023-05-14T13:39:05.726Z,100126.34
2023-05-14T13:41:33.152Z,100133.59
2023-05-14T13:44:00.873Z,100131.88
2023-05-14T13:46:28.466Z,100128.41
2023-05-14T13:48:56.390Z,100129.47
2023-05-14T13:51:25.275Z,100128.00
2023-05-14T13:56:20.508Z,100120.31
2023-05-14T13:58:50.172Z,100119.25
2023-05-14T14:01:17.477Z,100114.31
2023-05-14T14:03:45.358Z,100114.44
2023-05-14T14:06:12.869Z,100112.63
2023-05-14T14:08:42.065Z,100122.69
2023-05-14T14:11:09.367Z,100122.88
2023-05-14T14:13:37.442Z,100121.97
2023-05-14T14:16:05.701Z,100119.31
2023-05-14T14:18:34.018Z,100112.16
2023-05-14T14:21:01.642Z,100113.53
2023-05-14T14:23:29.333Z,100107.75
2023-05-14T14:25:58.178Z,100112.28
2023-05-14T14:28:25.934Z,100102.16
2023-05-14T14:30:53.405Z,100105.16
2023-05-14T14:33:21.090Z,100111.22
2023-05-14T14:35:48.482Z,100107.75
2023-05-14T14:38:16.299Z,100097.66
2023-05-14T14:40:43.700Z,100096.97
2023-05-14T14:43:12.877Z,100097.22
2023-05-14T14:45:40.257Z,100094.13
2023-05-14T14:48:27.401Z,100098.97
2023-05-14T14:50:55.020Z,100093.66
2023-05-14T14:53:23.744Z,100095.50
2023-05-14T14:55:51.600Z,100090.28
2023-05-14T14:58:21.228Z,100093.06
2023-05-14T15:00:49.412Z,100086.53
2023-05-14T15:03:18.048Z,100089.84
2023-05-14T15:05:45.541Z,100086.56
2023-05-14T15:08:13.561Z,100083.22
2023-05-14T15:10:41.379Z,100080.63
2023-05-14T15:13:09.462Z,100079.56
2023-05-14T15:15:38.394Z,100074.22
2023-05-14T15:18:06.329Z,100076.03
2023-05-14T15:20:33.783Z,100073.63
2023-05-14T15:23:01.541Z,100066.75
2023-05-14T15:25:29.080Z,100072.81
2023-05-14T15:27:56.742Z,100071.97
2023-05-14T15:30:24.103Z,100065.28
2023-05-14T15:32:53.421Z,100072.16
2023-05-14T15:35:20.731Z,100065.03
2023-05-14T15:37:48.537Z,100079.50
2023-05-14T15:40:15.924Z,100065.34
2023-05-14T15:42:44.098Z,100061.47
2023-05-14T15:45:12.646Z,100063.19
2023-05-14T15:47:40.745Z,100055.31
2023-05-14T15:50:09.794Z,100053.66
2023-05-14T15:52:37.712Z,100047.91
2023-05-14T15:55:06.735Z,100048.19
2023-05-14T15:57:34.651Z,100049.38
2023-05-14T16:00:02.124Z,100044.94
2023-05-14T16:02:29.855Z,100036.22
2023-05-14T16:04:57.205Z,100047.16
2023-05-14T16:07:26.340Z,100035.06
2023-05-14T16:09:53.808Z,100035.88
2023-05-14T16:12:21.404Z,100042.03
2023-05-14T16:14:48.631Z,100040.50
2023-05-14T16:17:16.388Z,100044.09
2023-05-14T16:19:43.769Z,100046.31
2023-05-14T16:22:11.560Z,100035.94
2023-05-14T16:24:40.409Z,100036.28
2023-05-14T16:27:08.135Z,100034.63
2023-05-14T16:29:35.451Z,100032.97
2023-05-14T16:32:03.355Z,100017.06
2023-05-14T16:34:30.796Z,100019.88
2023-05-14T16:36:59.560Z,100017.75
2023-05-14T16:39:26.937Z,100023.69
2023-05-14T16:41:56.119Z,100022.13
2023-05-14T16:44:23.447Z,100023.13
2023-05-14T16:46:51.463Z,100026.75
2023-05-14T16:49:18.711Z,100018.09
2023-05-14T16:51:46.442Z,100028.06
2023-05-14T16:54:13.867Z,100028.41
2023-05-14T16:56:41.674Z,100024.88
2023-05-14T16:59:10.390Z,100027.28
2023-05-14T17:01:38.673Z,100028.44
2023-05-14T17:08:02.584Z,100021.94
2023-05-14T17:11:03.019Z,100016.22
2023-05-14T17:13:30.328Z,100019.09
2023-05-14T17:16:24.897Z,100015.28
2023-05-14T17:19:04.086Z,100023.69
2023-05-14T17:24:58.027Z,100026.56
2023-05-14T17:27:25.870Z,100024.66
2023-05-14T17:29:53.227Z,100023.22
2023-05-14T17:32:22.444Z,100028.59
2023-05-14T17:34:49.824Z,100025.50
2023-05-14T17:37:17.635Z,100025.47
2023-05-14T17:39:49.704Z,100026.75
2023-05-14T17:42:17.592Z,100025.84
2023-05-14T17:44:45.068Z,100019.66
2023-05-14T17:47:13.203Z,100013.63
2023-05-14T17:49:42.017Z,100015.75
2023-05-14T17:52:09.788Z,100019.91
2023-05-14T17:54:37.297Z,100022.28
2023-05-14T17:57:05.491Z,100024.41
2023-05-14T17:59:32.817Z,100023.69
2023-05-14T18:02:00.687Z,100017.75
2023-05-14T18:04:28.215Z,100026.06
2023-05-14T18:06:57.440Z,100021.91
2023-05-14T18:09:24.757Z,100019.31
2023-05-14T18:11:53.752Z,100021.91
2023-05-14T18:14:22.083Z,100021.06
2023-05-14T18:16:49.861Z,100025.59
2023-05-14T18:19:17.298Z,100020.25
2023-05-14T18:21:44.963Z,100013.84
2023-05-14T18:24:13.915Z,100010.75
2023-05-14T18:26:41.808Z,100006.34
2023-05-14T18:29:09.284Z,100011.69
2023-05-14T18:31:37.072Z,100009.50
2023-05-14T18:34:04.623Z,100012.38
2023-05-14T18:36:33.040Z,99997.53
2023-05-14T18:39:00.479Z,100001.72
2023-05-14T18:41:29.741Z,100000.59
2023-05-14T18:43:57.136Z,99998.72
2023-05-14T18:46:25.292Z,99996.13
2023-05-14T18:48:52.863Z,100001.28
2023-05-14T18:51:20.936Z,99995.31
2023-05-14T18:53:51.326Z,100005.28
2023-05-14T18:56:19.113Z,100002.78
2023-05-14T18:58:48.261Z,100003.72
2023-05-14T19:04:44.285Z,99997.06
2023-05-14T19:04:54.989Z,99992.78
2023-05-14T19:07:23.028Z,99989.22
2023-05-14T19:09:55.830Z,99987.81
2023-05-14T19:12:31.375Z,99994.13
2023-05-14T19:15:13.303Z,99986.91
2023-05-14T19:17:46.924Z,99989.63
2023-05-14T19:20:14.263Z,100001.06
2023-05-14T19:22:44.689Z,99997.38
2023-05-14T19:25:14.906Z,100000.47
2023-05-14T19:27:42.835Z,99993.59
2023-05-14T19:30:14.575Z,99984.28
2023-05-14T19:32:48.645Z,99986.66
2023-05-14T19:35:22.628Z,99976.97
2023-05-14T19:37:53.003Z,99985.06
2023-05-14T19:40:23.738Z,99979.84
2023-05-14T19:42:54.649Z,99979.09
2023-05-14T19:45:35.574Z,99974.25
2023-05-14T19:48:05.010Z,99967.66
2023-05-14T19:50:35.981Z,99959.47
2023-05-14T19:53:04.072Z,99957.22
2023-05-14T19:55:32.842Z,99965.81
2023-05-14T19:58:00.879Z,99975.91
2023-05-14T20:00:37.130Z,99965.44
2023-05-14T20:03:08.100Z,99963.06
2023-05-14T20:05:38.891Z,99964.28
2023-05-14T20:08:07.016Z,99973.81
2023-05-14T20:10:39.423Z,99970.94
2023-05-14T20:13:07.693Z,99967.03
2023-05-14T20:15:36.734Z,99960.22
2023-05-14T20:18:11.812Z,99939.88
2023-05-14T20:20:39.312Z,99929.75
2023-05-14T20:23:06.972Z,99932.03
2023-05-14T20:25:39.269Z,99930.47
2023-05-14T20:28:07.080Z,99925.88
2023-05-14T20:30:36.009Z,99922.31
2023-05-14T20:33:04.232Z,99917.94
2023-05-14T20:35:41.216Z,99929.41
2023-05-14T20:38:09.376Z,99926.16
2023-05-14T20:40:36.857Z,99935.53
2023-05-14T20:43:07.277Z,99921.00
2023-05-14T20:45:36.217Z,99906.88
2023-05-14T20:48:04.440Z,99890.47
2023-05-14T20:50:42.216Z,99882.94
2023-05-14T20:53:10.157Z,99889.25
2023-05-14T20:55:38.056Z,99885.88
2023-05-14T20:58:05.907Z,99881.56
2023-05-14T21:00:33.612Z,99874.09
2023-05-14T21:03:03.039Z,99875.34
2023-05-14T21:05:40.627Z,99877.19
2023-05-14T21:08:10.822Z,99874.81
2023-05-14T21:10:38.264Z,99872.09
2023-05-14T21:13:06.051Z,99880.47
2023-05-14T21:15:33.348Z,99877.28
2023-05-14T21:18:02.590Z,99876.75
2023-05-14T21:20:30.037Z,99868.13
2023-05-14T21:22:57.862Z,99869.78
2023-05-14T21:25:25.675Z,99859.81
2023-05-14T21:27:53.890Z,99861.44
2023-05-14T21:30:22.070Z,99867.03
2023-05-14T21:32:49.954Z,99863.16
2023-05-14T21:35:18.828Z,99871.50
2023-05-14T21:37:49.719Z,99866.34
2023-05-14T21:40:17.136Z,99879.22
2023-05-14T21:42:48.384Z,99894.16
2023-05-14T21:45:15.938Z,99909.63
2023-05-14T21:47:43.756Z,99923.94
2023-05-14T21:50:14.428Z,99929.47
2023-05-14T21:52:45.947Z,99924.78
2023-05-14T21:55:13.350Z,99922.22
2023-05-14T21:57:41.438Z,99917.59
2023-05-14T22:00:09.559Z,99907.16
2023-05-14T22:02:37.391Z,99898.59
2023-05-14T22:05:05.598Z,99906.41
2023-05-14T22:07:33.551Z,99895.47
2023-05-14T22:10:02.431Z,99897.38
2023-05-14T22:12:30.329Z,99906.75
2023-05-14T22:14:57.759Z,99892.81
2023-05-14T22:17:26.522Z,99895.31
2023-05-14T22:19:53.952Z,99891.34
2023-05-14T22:22:21.845Z,99881.34
2023-05-14T22:24:49.194Z,99872.19
2023-05-14T22:27:18.559Z,99877.00
2023-05-14T22:29:45.958Z,99866.75
2023-05-14T22:32:13.605Z,99864.88
2023-05-14T22:34:41.046Z,99851.56
2023-05-14T22:37:08.859Z,99846.78
2023-05-14T22:39:36.163Z,99839.47
2023-05-14T22:42:04.201Z,99838.25
2023-05-14T22:44:33.029Z,99828.63
2023-05-14T22:47:00.939Z,99834.25
2023-05-14T22:49:28.239Z,99826.31
2023-05-14T22:51:55.948Z,99822.59
2023-05-14T22:54:23.347Z,99822.41
2023-05-14T22:56:51.361Z,99813.22
2023-05-14T22:59:18.724Z,99815.28
2023-05-14T23:01:47.898Z,99810.50
2023-05-14T23:04:15.311Z,99815.72
2023-05-14T23:06:43.002Z,99801.34
2023-05-14T23:09:10.291Z,99800.28
2023-05-14T23:11:38.133Z,99795.91
2023-05-14T23:14:05.545Z,99786.47
2023-05-14T23:16:33.185Z,99792.94
2023-05-14T23:19:02.042Z,99787.13
2023-05-14T23:21:29.810Z,99793.81
2023-05-14T23:23:57.073Z,99788.63
2023-05-14T23:26:24.865Z,99788.66
2023-05-14T23:28:52.024Z,99780.72
2023-05-14T23:31:19.754Z,99769.88
2023-05-14T23:33:47.090Z,99777.63
2023-05-14T23:36:16.251Z,99776.38
2023-05-14T23:38:43.939Z,99768.06
2023-05-14T23:41:11.659Z,99762.00
2023-05-14T23:43:39.114Z,99754.97
2023-05-14T23:46:06.923Z,99759.50
2023-05-14T23:48:34.693Z,99747.84
2023-05-14T23:51:02.366Z,99748.06
2023-05-14T23:53:31.094Z,99731.56
2023-05-14T23:55:58.949Z,99729.91
2023-05-14T23:58:26.531Z,99726.59
